Terminal Aerodrome Forecast
Issued by NWS Memphis, TN

Home | Current Version | Previous Version | Text Only | Print | Product List | Glossary On
Versions: 1 2 3 4 5 6 7 8 9 10 11 12 13 14
000
FTUS44 KMEG 240500
TAFMKL
TAF
KMKL 240539Z 2406/2506 11006KT P6SM SKC
     FM241400 18007KT P6SM SCT050 SCT250
     FM241700 17010KT P6SM SCT050 SCT150
     FM241900 19012G20KT P6SM BKN040 BKN150
     FM242300 19012G20KT P6SM VCTS BKN040CB BKN150
      TEMPO 2502/2504 3SM -TSRA OVC035CB
     FM250400 22015G25KT P6SM OVC035=

USA.gov is the U.S. government's official web portal to all federal, state and local government web resources and services.